Time;durP1;ratioP1;P1;durP2;ratioP2;P2;SDS_P1;SDS_P2;PMS_P1;PMS_P2;Temp;Humidity;BMP_temperature;BMP_pressure;BME280_temperature;BME280_humidity;BME280_pressure;Samples;Min_cycle;Max_cycle;Signal;HPM_P1;HPM_P2
2022/08/21 00:00:38;;;;;;;11.63;7.15;;;15.50;99.90;;;;;;4966447;28;20096;-55
2022/08/21 00:03:06;;;;;;;11.30;6.78;;;15.50;99.90;;;;;;4988479;28;20040;-55
2022/08/21 00:05:36;;;;;;;11.75;6.95;;;15.50;99.90;;;;;;4999016;28;20050;-56
2022/08/21 00:08:02;;;;;;;9.65;6.22;;;15.50;99.90;;;;;;5002407;28;20579;-56
2022/08/21 00:10:28;;;;;;;10.57;7.35;;;15.50;99.90;;;;;;4994885;28;20476;-54
2022/08/21 00:12:54;;;;;;;11.07;7.53;;;15.50;99.90;;;;;;5002383;28;20045;-52
2022/08/21 00:15:26;;;;;;;9.02;5.85;;;15.50;99.90;;;;;;4990923;28;20046;-55
2022/08/21 00:17:53;;;;;;;11.85;7.45;;;15.50;99.90;;;;;;4998804;28;20035;-54
2022/08/21 00:20:19;;;;;;;10.82;7.30;;;15.50;99.90;;;;;;5004546;28;20066;-55
2022/08/21 00:22:45;;;;;;;9.50;8.02;;;15.50;99.90;;;;;;4983339;28;20132;-55
2022/08/21 00:25:12;;;;;;;9.15;6.82;;;15.40;99.90;;;;;;4986397;28;20046;-53
2022/08/21 00:27:38;;;;;;;11.85;7.63;;;15.40;99.90;;;;;;4988071;28;20452;-56
2022/08/21 00:30:06;;;;;;;10.38;7.95;;;15.40;99.90;;;;;;5012093;28;20034;-53
2022/08/21 00:32:33;;;;;;;9.88;6.22;;;15.40;99.90;;;;;;5002952;28;20046;-53
2022/08/21 00:34:59;;;;;;;10.13;7.20;;;15.30;99.90;;;;;;4980964;28;20141;-55
2022/08/21 00:37:25;;;;;;;11.00;7.20;;;15.30;99.90;;;;;;5005368;28;20038;-56
2022/08/21 00:39:51;;;;;;;11.55;7.30;;;15.30;99.90;;;;;;4987332;28;20042;-55
2022/08/21 00:42:17;;;;;;;11.43;7.10;;;15.20;99.90;;;;;;4985062;28;20116;-56
2022/08/21 00:44:47;;;;;;;11.15;7.28;;;15.20;99.90;;;;;;4987066;28;20096;-55
2022/08/21 00:47:12;;;;;;;12.13;8.85;;;15.20;99.90;;;;;;4987508;28;20122;-56
2022/08/21 00:49:39;;;;;;;10.60;7.60;;;15.20;99.90;;;;;;4982877;28;20506;-56
2022/08/21 00:52:08;;;;;;;14.45;7.88;;;15.10;99.90;;;;;;4982432;28;20065;-52
2022/08/21 00:54:35;;;;;;;10.35;7.53;;;15.10;99.90;;;;;;5001154;28;20470;-54
2022/08/21 00:57:06;;;;;;;8.25;6.63;;;15.20;99.90;;;;;;4985796;28;20290;-55
2022/08/21 00:59:36;;;;;;;13.45;8.52;;;14.90;99.90;;;;;;4984678;28;20486;-54
2022/08/21 01:02:04;;;;;;;11.18;7.43;;;15.20;99.90;;;;;;4991161;28;20045;-56
2022/08/21 01:04:30;;;;;;;10.85;8.20;;;15.10;99.90;;;;;;4994527;28;20042;-56
2022/08/21 01:06:55;;;;;;;11.10;7.28;;;15.10;99.90;;;;;;4982924;28;20034;-55
2022/08/21 01:09:21;;;;;;;14.63;8.32;;;15.10;99.90;;;;;;4982537;28;20043;-55
2022/08/21 01:11:47;;;;;;;14.63;8.95;;;15.10;99.90;;;;;;4994328;28;20039;-55
2022/08/21 01:14:14;;;;;;;10.63;7.70;;;15.10;99.90;;;;;;4999639;28;20277;-55
2022/08/21 01:16:45;;;;;;;11.23;7.72;;;15.20;99.90;;;;;;4987906;28;20046;-55
2022/08/21 01:19:12;;;;;;;12.32;7.40;;;15.10;99.90;;;;;;4984635;28;20076;-55
2022/08/21 01:21:38;;;;;;;9.13;7.53;;;15.20;99.90;;;;;;4994146;28;20042;-52
2022/08/21 01:24:05;;;;;;;15.90;9.07;;;15.20;99.90;;;;;;4986875;28;20050;-54
2022/08/21 01:26:34;;;;;;;12.32;8.60;;;15.20;99.90;;;;;;4985580;28;20502;-53
2022/08/21 01:29:19;;;;;;;12.75;7.97;;;15.20;99.90;;;;;;4990992;28;20119;-54
2022/08/21 01:31:45;;;;;;;13.30;8.48;;;15.20;99.90;;;;;;4987719;28;20046;-52
2022/08/21 01:34:11;;;;;;;12.70;7.78;;;15.10;99.90;;;;;;4989697;28;20122;-53
2022/08/21 01:36:37;;;;;;;14.32;8.80;;;15.10;99.90;;;;;;4981059;28;20030;-54
2022/08/21 01:39:04;;;;;;;11.95;7.82;;;15.10;99.90;;;;;;4982115;28;20049;-53
2022/08/21 01:41:30;;;;;;;12.95;8.75;;;15.10;99.90;;;;;;4984986;28;20046;-55
2022/08/21 01:43:56;;;;;;;13.93;9.15;;;15.10;99.90;;;;;;4996183;28;20048;-56
2022/08/21 01:46:22;;;;;;;10.77;8.40;;;15.20;99.90;;;;;;4979510;28;20085;-56
2022/08/21 01:48:47;;;;;;;11.73;7.55;;;15.10;99.90;;;;;;4986738;28;20060;-52
2022/08/21 01:51:14;;;;;;;11.05;8.95;;;15.10;99.90;;;;;;4986837;28;20042;-55
2022/08/21 01:53:40;;;;;;;10.90;7.88;;;15.10;99.90;;;;;;4990262;28;20100;-52
2022/08/21 01:56:10;;;;;;;13.43;7.90;;;15.10;99.90;;;;;;4984479;28;20077;-52
2022/08/21 01:58:36;;;;;;;9.95;7.47;;;15.10;99.90;;;;;;4992408;28;20050;-54
2022/08/21 02:01:03;;;;;;;11.02;8.00;;;15.10;99.90;;;;;;4986287;28;20085;-57
2022/08/21 02:03:29;;;;;;;14.70;8.18;;;15.10;99.90;;;;;;4988207;28;20046;-56
2022/08/21 02:05:55;;;;;;;14.95;8.27;;;15.10;99.90;;;;;;4981585;28;20309;-55
2022/08/21 02:08:23;;;;;;;12.57;8.13;;;15.20;99.90;;;;;;4987911;28;20053;-55
2022/08/21 02:10:49;;;;;;;9.65;6.85;;;15.10;99.90;;;;;;4997293;28;20397;-57
2022/08/21 02:13:15;;;;;;;10.23;8.23;;;15.10;99.90;;;;;;4982381;28;20085;-55
2022/08/21 02:15:41;;;;;;;12.38;8.10;;;15.10;99.90;;;;;;4986608;28;20038;-56
2022/08/21 02:18:07;;;;;;;13.82;8.38;;;15.10;99.90;;;;;;4985846;28;20047;-54
2022/08/21 02:20:40;;;;;;;9.65;6.68;;;15.10;99.90;;;;;;4966335;28;20049;-57
2022/08/21 02:23:08;;;;;;;13.70;8.18;;;15.10;99.90;;;;;;4991173;28;20158;-53
2022/08/21 02:25:34;;;;;;;14.07;8.98;;;15.00;99.90;;;;;;4982487;28;20046;-59
2022/08/21 02:28:07;;;;;;;15.65;9.25;;;15.00;99.90;;;;;;4963788;28;20042;-55
2022/08/21 02:30:37;;;;;;;12.80;9.40;;;15.00;99.90;;;;;;4981982;28;20125;-56
2022/08/21 02:33:04;;;;;;;10.50;7.35;;;15.00;99.90;;;;;;4983732;28;20042;-54
2022/08/21 02:35:30;;;;;;;10.43;7.95;;;15.00;99.90;;;;;;4969448;28;20478;-57
2022/08/21 02:37:59;;;;;;;11.38;7.63;;;14.90;99.90;;;;;;4987759;28;20405;-53
2022/08/21 02:40:32;;;;;;;15.95;8.95;;;14.90;99.90;;;;;;4986062;28;20046;-53
2022/08/21 02:42:59;;;;;;;11.85;9.10;;;14.90;99.90;;;;;;4985764;28;20088;-55
2022/08/21 02:45:28;;;;;;;14.77;8.90;;;14.90;99.90;;;;;;4982314;28;20080;-55
2022/08/21 02:48:20;;;;;;;10.82;8.32;;;14.90;99.90;;;;;;4982084;28;20400;-53
2022/08/21 02:50:51;;;;;;;17.02;8.85;;;14.90;99.90;;;;;;5000339;28;20497;-53
2022/08/21 02:53:17;;;;;;;15.23;8.10;;;14.90;99.90;;;;;;4988276;28;20385;-54
2022/08/21 02:55:47;;;;;;;11.82;8.57;;;14.90;99.90;;;;;;4986166;28;20130;-55
2022/08/21 02:58:16;;;;;;;13.70;8.65;;;14.90;99.90;;;;;;4996023;28;20053;-54
2022/08/21 03:00:42;;;;;;;14.68;9.73;;;14.90;99.90;;;;;;4985409;28;20046;-56
2022/08/21 03:03:08;;;;;;;13.50;8.95;;;14.90;99.90;;;;;;4989722;28;20035;-52
2022/08/21 03:05:35;;;;;;;11.48;8.70;;;14.90;99.90;;;;;;4982280;28;20125;-56
2022/08/21 03:08:04;;;;;;;11.32;8.55;;;14.90;99.90;;;;;;4986055;28;20084;-53
2022/08/21 03:10:30;;;;;;;14.43;9.38;;;14.80;99.90;;;;;;4996128;28;20042;-55
2022/08/21 03:12:56;;;;;;;13.05;8.15;;;14.80;99.90;;;;;;4987088;28;20681;-56
2022/08/21 03:15:23;;;;;;;10.73;7.53;;;14.80;99.90;;;;;;4987035;28;20042;-56
2022/08/21 03:17:50;;;;;;;15.77;9.13;;;14.80;99.90;;;;;;4990655;28;20048;-53
2022/08/21 03:20:18;;;;;;;14.52;8.02;;;14.80;99.90;;;;;;4998756;28;20046;-55
2022/08/21 03:22:44;;;;;;;12.95;9.02;;;14.80;99.90;;;;;;4983311;28;20379;-53
2022/08/21 03:25:10;;;;;;;15.20;9.45;;;14.80;99.90;;;;;;4981579;28;20053;-55
2022/08/21 03:27:36;;;;;;;13.38;7.28;;;14.80;99.90;;;;;;4986705;28;20185;-54
2022/08/21 03:30:04;;;;;;;13.30;8.40;;;14.80;99.90;;;;;;4986269;28;20477;-55
2022/08/21 03:32:31;;;;;;;11.32;8.38;;;14.80;99.90;;;;;;4987246;28;20121;-54
2022/08/21 03:34:57;;;;;;;12.48;7.97;;;14.80;99.90;;;;;;4983576;28;20567;-52
2022/08/21 03:37:24;;;;;;;14.85;8.23;;;14.80;99.90;;;;;;5006858;28;20137;-54
2022/08/21 03:39:50;;;;;;;12.85;8.80;;;14.80;99.90;;;;;;4986960;28;20041;-52
2022/08/21 03:42:16;;;;;;;14.85;8.25;;;14.80;99.90;;;;;;4986828;28;20053;-54
2022/08/21 03:44:42;;;;;;;13.45;8.40;;;14.80;99.90;;;;;;4983255;28;20046;-52
2022/08/21 03:47:09;;;;;;;13.73;8.18;;;14.80;99.90;;;;;;5010334;28;20100;-52
2022/08/21 03:49:35;;;;;;;12.45;8.50;;;14.80;99.90;;;;;;4998934;28;20054;-54
2022/08/21 03:52:01;;;;;;;14.02;7.93;;;14.80;99.90;;;;;;4987232;28;20085;-53
2022/08/21 03:54:27;;;;;;;13.50;7.75;;;14.80;99.90;;;;;;4982817;28;22291;-55
2022/08/21 03:56:53;;;;;;;12.57;6.95;;;14.80;99.90;;;;;;4996543;28;20039;-57
2022/08/21 03:59:19;;;;;;;11.73;7.80;;;14.80;99.90;;;;;;4997256;28;20173;-56
2022/08/21 04:01:56;;;;;;;12.43;7.57;;;14.80;99.90;;;;;;4982251;28;20038;-57
2022/08/21 04:04:22;;;;;;;12.18;7.25;;;14.70;99.90;;;;;;4986617;28;20473;-57
2022/08/21 04:06:49;;;;;;;13.18;8.32;;;14.80;99.90;;;;;;4986641;28;20053;-55
2022/08/21 04:09:14;;;;;;;11.52;7.68;;;14.80;99.90;;;;;;5013053;28;20048;-56
2022/08/21 04:11:40;;;;;;;14.85;8.00;;;14.80;99.90;;;;;;4986014;28;20401;-57
2022/08/21 04:14:06;;;;;;;10.77;7.72;;;14.80;99.90;;;;;;5002525;22;20827;-59
2022/08/21 04:16:31;;;;;;;10.32;7.60;;;14.70;99.90;;;;;;5014579;28;20462;-55
2022/08/21 04:18:57;;;;;;;16.55;8.88;;;14.70;99.90;;;;;;5021581;28;20042;-56
2022/08/21 04:21:23;;;;;;;14.57;8.13;;;14.70;99.90;;;;;;5019871;28;20045;-56
2022/08/21 04:23:50;;;;;;;13.50;7.43;;;14.70;99.90;;;;;;4995521;28;20041;-56
2022/08/21 04:26:15;;;;;;;11.43;8.02;;;14.70;99.90;;;;;;5022709;28;20056;-55
2022/08/21 04:28:41;;;;;;;11.88;7.43;;;14.70;99.90;;;;;;4995084;28;20042;-56
2022/08/21 04:31:08;;;;;;;9.93;6.53;;;14.70;99.90;;;;;;5007962;28;20324;-56
2022/08/21 04:33:34;;;;;;;13.32;8.50;;;14.70;99.90;;;;;;5002871;28;20077;-54
2022/08/21 04:36:01;;;;;;;14.77;8.05;;;14.70;99.90;;;;;;5013462;28;20120;-56
2022/08/21 04:38:27;;;;;;;13.18;7.43;;;14.70;99.90;;;;;;4996998;28;20103;-56
2022/08/21 04:40:53;;;;;;;14.85;7.72;;;14.70;99.90;;;;;;5010257;28;20033;-56
2022/08/21 04:43:21;;;;;;;15.25;8.38;;;14.70;99.90;;;;;;5014031;28;20057;-56
2022/08/21 04:45:48;;;;;;;12.07;7.30;;;14.70;99.90;;;;;;4995626;28;20125;-56
2022/08/21 04:48:16;;;;;;;11.70;7.57;;;14.70;99.90;;;;;;4988958;28;20408;-57
2022/08/21 04:50:57;;;;;;;15.30;8.02;;;14.70;99.90;;;;;;4996541;28;20053;-57
2022/08/21 04:53:26;;;;;;;14.02;8.00;;;14.70;99.90;;;;;;4988369;28;20453;-56
2022/08/21 04:55:54;;;;;;;14.82;7.50;;;14.70;99.90;;;;;;5008550;28;20516;-57
2022/08/21 04:58:22;;;;;;;10.68;7.15;;;14.80;99.90;;;;;;5012248;28;20159;-57
2022/08/21 05:00:48;;;;;;;11.43;7.53;;;14.80;99.90;;;;;;5008547;28;20045;-57
2022/08/21 05:03:16;;;;;;;15.50;7.97;;;14.80;99.90;;;;;;5002166;28;20493;-57
2022/08/21 05:05:43;;;;;;;13.65;7.50;;;14.80;99.90;;;;;;5004181;28;20111;-56
2022/08/21 05:08:12;;;;;;;12.35;7.75;;;14.80;99.90;;;;;;4991605;28;20080;-56
2022/08/21 05:10:38;;;;;;;12.95;8.00;;;14.90;99.90;;;;;;4992377;28;20540;-56
2022/08/21 05:13:05;;;;;;;13.05;7.60;;;14.90;99.90;;;;;;5006345;28;20125;-55
2022/08/21 05:15:31;;;;;;;16.70;8.00;;;14.90;99.90;;;;;;5007360;28;20397;-57
2022/08/21 05:17:57;;;;;;;10.45;7.20;;;15.00;99.90;;;;;;4983116;28;20505;-54
2022/08/21 05:20:23;;;;;;;11.20;7.03;;;15.00;99.90;;;;;;4998081;28;20070;-57
2022/08/21 05:22:48;;;;;;;13.93;7.60;;;15.10;99.90;;;;;;5004249;28;20052;-57
2022/08/21 05:25:14;;;;;;;13.18;7.78;;;15.10;99.90;;;;;;4966443;28;20061;-55
2022/08/21 05:27:40;;;;;;;12.65;7.40;;;15.20;99.90;;;;;;4986963;28;20037;-55
2022/08/21 05:30:07;;;;;;;14.55;6.90;;;15.20;99.90;;;;;;5000876;28;20081;-55
2022/08/21 05:32:33;;;;;;;16.05;7.55;;;15.20;99.90;;;;;;4995293;28;20374;-57
2022/08/21 05:34:59;;;;;;;11.65;6.90;;;15.30;99.90;;;;;;4993569;28;20033;-55
2022/08/21 05:37:25;;;;;;;14.10;7.57;;;15.40;99.90;;;;;;4982345;28;20410;-56
2022/08/21 05:39:51;;;;;;;12.93;7.47;;;15.40;99.90;;;;;;5002337;28;20033;-55
2022/08/21 05:42:17;;;;;;;15.38;7.45;;;15.50;99.90;;;;;;4974633;28;20073;-56
2022/08/21 05:44:42;;;;;;;11.75;7.20;;;15.50;99.90;;;;;;5004987;28;20029;-56
2022/08/21 05:47:10;;;;;;;13.40;7.60;;;15.60;99.90;;;;;;4994014;28;20193;-55
2022/08/21 05:49:36;;;;;;;13.80;7.47;;;15.60;99.90;;;;;;5001322;28;20038;-56
2022/08/21 05:52:03;;;;;;;15.63;7.50;;;15.70;99.90;;;;;;4996539;28;20042;-57
2022/08/21 05:54:30;;;;;;;10.70;7.18;;;15.80;99.90;;;;;;5016956;28;20096;-57
2022/08/21 05:56:56;;;;;;;12.85;7.63;;;15.80;99.90;;;;;;4998928;28;20100;-56
2022/08/21 05:59:22;;;;;;;14.57;8.75;;;15.90;99.90;;;;;;4999291;28;20041;-55
2022/08/21 06:01:48;;;;;;;15.85;7.30;;;16.00;99.90;;;;;;4998383;28;20038;-57
2022/08/21 06:04:14;;;;;;;11.93;7.40;;;16.10;99.90;;;;;;4984370;28;20107;-56
2022/08/21 06:06:40;;;;;;;12.70;7.63;;;16.20;99.90;;;;;;4997666;28;20049;-57
2022/08/21 06:09:05;;;;;;;10.85;6.13;;;16.20;99.90;;;;;;4991402;28;20176;-55
2022/08/21 06:11:32;;;;;;;13.55;6.78;;;16.30;99.90;;;;;;5010300;28;20125;-56
2022/08/21 06:13:59;;;;;;;14.48;7.57;;;16.40;99.90;;;;;;4996817;28;20034;-55
2022/08/21 06:16:26;;;;;;;12.07;7.55;;;16.50;99.90;;;;;;4999987;28;20088;-54
2022/08/21 06:18:51;;;;;;;11.13;7.38;;;16.40;99.90;;;;;;5000694;28;20038;-57
2022/08/21 06:21:18;;;;;;;16.80;6.93;;;16.70;99.90;;;;;;4986784;28;20033;-57
2022/08/21 06:23:44;;;;;;;11.77;6.95;;;16.80;99.90;;;;;;5001757;28;20037;-57
2022/08/21 06:26:12;;;;;;;14.98;7.13;;;16.90;99.90;;;;;;4995521;28;20483;-58
2022/08/21 06:28:38;;;;;;;16.50;7.43;;;16.90;99.90;;;;;;4984574;28;20042;-58
2022/08/21 06:31:25;;;;;;;15.02;7.00;;;17.00;99.90;;;;;;5002651;28;20043;-58
2022/08/21 06:33:51;;;;;;;10.50;6.53;;;17.00;99.90;;;;;;4980434;28;20036;-58
2022/08/21 06:36:17;;;;;;;12.15;5.90;;;17.10;99.90;;;;;;4969438;28;20049;-57
2022/08/21 06:38:43;;;;;;;12.70;6.80;;;17.10;99.90;;;;;;4994915;28;20284;-58
2022/08/21 06:41:09;;;;;;;14.20;6.60;;;17.20;99.90;;;;;;5017792;28;20057;-58
2022/08/21 06:43:35;;;;;;;11.65;6.18;;;17.30;99.90;;;;;;4996226;28;20048;-58
2022/08/21 06:46:01;;;;;;;11.48;5.95;;;17.40;99.90;;;;;;5002961;28;20042;-58
2022/08/21 06:48:26;;;;;;;10.95;5.55;;;17.50;99.90;;;;;;5001474;28;20080;-58
2022/08/21 06:50:52;;;;;;;11.82;6.30;;;17.60;99.90;;;;;;5000495;28;20055;-58
2022/08/21 06:53:19;;;;;;;12.30;6.03;;;17.70;99.90;;;;;;4982243;28;20046;-58
2022/08/21 06:55:47;;;;;;;13.07;6.43;;;17.80;99.90;;;;;;5006135;28;20034;-58
2022/08/21 06:58:13;;;;;;;13.13;6.72;;;17.90;99.90;;;;;;4979315;28;20125;-58
2022/08/21 07:00:42;;;;;;;13.00;5.88;;;18.00;99.90;;;;;;5002015;28;20050;-56
2022/08/21 07:03:15;;;;;;;15.98;5.93;;;18.10;99.90;;;;;;4998769;28;20515;-58
2022/08/21 07:05:41;;;;;;;12.63;5.65;;;18.20;99.90;;;;;;4995677;28;20206;-58
2022/08/21 07:08:06;;;;;;;14.55;6.72;;;18.30;99.90;;;;;;5001829;28;20042;-58
2022/08/21 07:10:32;;;;;;;10.77;5.70;;;18.40;99.90;;;;;;4996619;28;20497;-58
2022/08/21 07:12:58;;;;;;;10.35;5.75;;;18.50;99.90;;;;;;4996716;28;20041;-58
2022/08/21 07:15:23;;;;;;;13.90;6.25;;;18.50;99.90;;;;;;5006938;28;20042;-57
2022/08/21 07:17:49;;;;;;;11.07;5.22;;;18.70;99.90;;;;;;4986090;28;20046;-56
2022/08/21 07:20:15;;;;;;;13.48;5.13;;;18.70;99.90;;;;;;4998763;28;20037;-57
2022/08/21 07:22:42;;;;;;;14.27;6.55;;;18.80;99.90;;;;;;4999496;28;20943;-57
2022/08/21 07:25:08;;;;;;;12.20;5.15;;;18.90;99.90;;;;;;4994539;28;20273;-57
2022/08/21 07:27:34;;;;;;;13.15;6.18;;;19.00;99.90;;;;;;5003119;28;20116;-57
2022/08/21 07:29:59;;;;;;;12.50;5.53;;;19.10;99.90;;;;;;4976805;28;20034;-57
2022/08/21 07:32:25;;;;;;;12.75;6.43;;;19.10;99.90;;;;;;4995185;28;20547;-57
2022/08/21 07:34:51;;;;;;;13.98;5.70;;;19.30;99.90;;;;;;5002246;28;20037;-57
2022/08/21 07:37:17;;;;;;;11.48;5.40;;;19.40;99.90;;;;;;4994736;28;20129;-57
2022/08/21 07:39:43;;;;;;;13.52;4.90;;;19.60;99.90;;;;;;4992384;28;20120;-57
2022/08/21 07:42:10;;;;;;;9.95;5.18;;;19.70;99.90;;;;;;4995582;28;20045;-57
2022/08/21 07:44:36;;;;;;;18.08;6.03;;;19.80;99.90;;;;;;5003041;28;20436;-57
2022/08/21 07:47:01;;;;;;;12.60;5.60;;;19.90;99.90;;;;;;4975020;28;20121;-57
2022/08/21 07:49:28;;;;;;;9.80;5.25;;;20.00;99.90;;;;;;5002875;28;20030;-57
2022/08/21 07:51:54;;;;;;;11.77;5.20;;;19.90;99.90;;;;;;4987551;28;20038;-57
2022/08/21 07:54:20;;;;;;;13.50;5.43;;;20.10;99.90;;;;;;5014110;28;20041;-57
2022/08/21 07:56:46;;;;;;;14.52;5.35;;;20.10;99.90;;;;;;5017129;28;20155;-57
2022/08/21 07:59:12;;;;;;;11.60;5.28;;;20.20;99.90;;;;;;4991669;28;20311;-57
2022/08/21 08:01:38;;;;;;;11.60;4.90;;;20.20;99.90;;;;;;5001209;28;21807;-57
2022/08/21 08:04:03;;;;;;;15.23;5.60;;;20.20;99.90;;;;;;5018356;28;20041;-57
2022/08/21 08:06:30;;;;;;;13.05;6.03;;;20.30;99.90;;;;;;4987419;28;20038;-57
2022/08/21 08:08:56;;;;;;;10.85;4.90;;;20.30;99.90;;;;;;4998942;28;20080;-57
2022/08/21 08:11:22;;;;;;;11.30;5.72;;;20.40;99.90;;;;;;5011926;28;20042;-56
2022/08/21 08:13:49;;;;;;;13.15;4.85;;;20.40;99.90;;;;;;4983819;28;20076;-57
2022/08/21 08:16:16;;;;;;;12.00;5.55;;;20.40;99.90;;;;;;5007523;28;20484;-57
2022/08/21 08:18:42;;;;;;;11.77;5.38;;;20.50;99.90;;;;;;5001424;28;20499;-57
2022/08/21 08:21:08;;;;;;;11.82;4.85;;;20.60;99.90;;;;;;4979154;28;20046;-57
2022/08/21 08:23:34;;;;;;;10.45;5.22;;;20.80;99.90;;;;;;4988841;28;20108;-57
2022/08/21 08:26:02;;;;;;;12.13;5.10;;;21.00;99.90;;;;;;4990883;28;20046;-57
2022/08/21 08:28:29;;;;;;;13.05;5.22;;;21.10;99.90;;;;;;5005841;28;20056;-57
2022/08/21 08:30:55;;;;;;;15.25;5.82;;;21.10;99.90;;;;;;4998060;28;20042;-57
2022/08/21 08:33:21;;;;;;;14.45;5.68;;;21.20;99.90;;;;;;4996133;28;20034;-57
2022/08/21 08:35:49;;;;;;;8.50;4.75;;;21.20;99.90;;;;;;4992186;28;20445;-56
2022/08/21 08:38:18;;;;;;;13.80;5.25;;;21.30;99.90;;;;;;5006350;28;20085;-57
2022/08/21 08:41:02;;;;;;;11.70;4.55;;;21.50;99.90;;;;;;5009052;28;20120;-57
2022/08/21 08:43:29;;;;;;;;;;;21.60;99.90;;;;;;5005630;28;20042;-57
2022/08/21 08:45:58;;;;;;;12.77;4.65;;;21.70;99.90;;;;;;5022602;28;20008;-56
2022/08/21 08:49:14;;;;;;;15.20;4.50;;;21.80;99.90;;;;;;4998576;28;20050;-57
2022/08/21 08:52:01;;;;;;;9.38;4.30;;;21.80;99.90;;;;;;4990096;28;20133;-55
2022/08/21 08:54:38;;;;;;;15.40;4.20;;;21.80;99.90;;;;;;5030426;28;20045;-57
2022/08/21 08:57:09;;;;;;;11.63;3.40;;;21.80;99.90;;;;;;4994720;28;20042;-57
2022/08/21 08:59:40;;;;;;;12.75;3.08;;;21.90;99.90;;;;;;4995053;28;20135;-57
2022/08/21 09:02:08;;;;;;;13.63;3.60;;;22.00;99.90;;;;;;4985566;28;20045;-57
2022/08/21 09:04:34;;;;;;;11.55;3.03;;;22.30;99.90;;;;;;4998649;28;20116;-57
2022/08/21 09:07:19;;;;;;;8.60;3.03;;;22.50;99.90;;;;;;5015176;28;20050;-57
2022/08/21 09:09:55;;;;;;;15.77;3.50;;;22.50;99.90;;;;;;5011139;28;20126;-57
2022/08/21 09:12:40;;;;;;;13.48;3.58;;;22.30;99.90;;;;;;5010632;28;20118;-57
2022/08/21 09:15:46;;;;;;;15.05;4.53;;;22.10;99.90;;;;;;5007096;28;20042;-57
2022/08/21 09:18:41;;;;;;;12.75;3.03;;;22.00;99.90;;;;;;5007293;28;20413;-57
2022/08/21 09:21:36;;;;;;;12.77;4.10;;;22.20;99.90;;;;;;4992456;28;20054;-56
2022/08/21 09:24:18;;;;;;;13.43;3.28;;;22.40;99.90;;;;;;5007770;28;20048;-56
2022/08/21 09:27:06;;;;;;;12.10;3.53;;;22.70;99.90;;;;;;5022776;28;20052;-56
2022/08/21 09:29:39;;;;;;;10.55;3.60;;;22.70;99.90;;;;;;5004890;28;20061;-55
2022/08/21 09:32:18;;;;;;;10.35;3.63;;;22.60;99.90;;;;;;5000930;28;20038;-53
2022/08/21 09:34:57;;;;;;;10.88;3.42;;;22.50;99.90;;;;;;4981057;28;20069;-54
2022/08/21 09:37:23;;;;;;;8.88;2.90;;;22.40;99.90;;;;;;4995336;28;20539;-57
2022/08/21 09:39:49;;;;;;;7.18;2.58;;;22.20;99.90;;;;;;5007977;28;20171;-57
2022/08/21 09:42:23;;;;;;;7.18;2.53;;;22.10;99.90;;;;;;5008842;28;20093;-54
2022/08/21 09:45:04;;;;;;;16.58;4.35;;;22.00;99.90;;;;;;5013560;28;20048;-57
2022/08/21 09:47:30;;;;;;;11.05;3.67;;;22.00;99.90;;;;;;4996775;28;20117;-54
2022/08/21 09:49:55;;;;;;;10.05;2.72;;;22.00;99.90;;;;;;4993432;28;20041;-55
2022/08/21 09:52:24;;;;;;;10.05;2.78;;;21.90;99.90;;;;;;5008742;28;20033;-57
2022/08/21 09:54:54;;;;;;;8.45;2.42;;;21.90;99.90;;;;;;5008302;28;20046;-58
2022/08/21 09:57:46;;;;;;;10.05;3.70;;;22.10;99.90;;;;;;5000449;28;20509;-56
2022/08/21 10:00:33;;;;;;;14.18;3.33;;;22.30;99.90;;;;;;4997129;28;20054;-57
2022/08/21 10:03:15;;;;;;;13.27;3.63;;;22.60;99.90;;;;;;4984369;28;20051;-55
2022/08/21 10:06:05;;;;;;;9.60;3.08;;;22.80;99.90;;;;;;5000901;28;20046;-55
2022/08/21 10:08:32;;;;;;;9.63;3.72;;;23.00;99.90;;;;;;5009988;28;20048;-53
2022/08/21 10:11:07;;;;;;;11.55;4.10;;;23.30;99.90;;;;;;4994365;28;20049;-55
2022/08/21 10:16:48;;;;;;;10.65;3.00;;;23.50;99.90;;;;;;4967527;28;20058;-54
2022/08/21 10:19:36;;;;;;;8.73;2.95;;;23.20;99.90;;;;;;4972725;28;20125;-57
2022/08/21 10:22:07;;;;;;;9.13;2.88;;;23.30;99.90;;;;;;4985452;28;20604;-56
2022/08/21 10:24:42;;;;;;;8.23;2.63;;;23.60;99.90;;;;;;4983988;28;20050;-56
2022/08/21 10:27:35;;;;;;;9.45;2.83;;;23.70;99.90;;;;;;4997851;28;20128;-55
2022/08/21 10:30:12;;;;;;;9.80;3.00;;;23.90;99.80;;;;;;4985488;28;20096;-56
2022/08/21 10:32:40;;;;;;;7.00;2.42;;;24.00;99.50;;;;;;4999783;28;20046;-56
2022/08/21 10:35:31;;;;;;;9.10;2.97;;;24.20;99.70;;;;;;4991737;28;20085;-56
2022/08/21 10:38:25;;;;;;;10.02;2.75;;;24.40;98.80;;;;;;4987984;28;20041;-54
2022/08/21 10:40:56;;;;;;;5.78;1.85;;;24.60;98.10;;;;;;4982801;28;20069;-55
2022/08/21 10:44:01;;;;;;;4.72;2.03;;;24.30;96.70;;;;;;4985812;28;20045;-54
2022/08/21 10:46:33;;;;;;;6.85;2.38;;;24.20;96.40;;;;;;4955550;28;20050;-55
2022/08/21 10:49:21;;;;;;;6.07;1.73;;;23.90;95.90;;;;;;4987607;28;20128;-56
2022/08/21 10:52:14;;;;;;;7.28;1.83;;;23.50;96.40;;;;;;4987530;28;20404;-56
2022/08/21 10:54:55;;;;;;;6.78;1.60;;;23.40;97.30;;;;;;4983960;28;20113;-56
2022/08/21 10:57:36;;;;;;;5.97;1.70;;;23.10;94.70;;;;;;4987929;28;20037;-57
2022/08/21 11:00:45;;;;;;;4.72;1.70;;;22.80;95.70;;;;;;4983061;28;20057;-56
2022/08/21 11:03:36;;;;;;;5.72;2.40;;;22.60;96.50;;;;;;4990346;28;20496;-56
2022/08/21 11:06:22;;;;;;;5.70;1.80;;;22.50;97.40;;;;;;4981063;28;20281;-57
2022/08/21 11:09:11;;;;;;;6.45;2.00;;;22.50;98.10;;;;;;4983507;28;20080;-55
2022/08/21 11:11:45;;;;;;;5.45;1.60;;;22.60;98.10;;;;;;4995589;28;20074;-52
2022/08/21 11:15:02;;;;;;;6.20;1.60;;;22.80;98.10;;;;;;4987174;28;20043;-56
2022/08/21 11:17:36;;;;;;;6.32;2.00;;;23.00;97.30;;;;;;4963971;28;20042;-56
2022/08/21 11:20:15;;;;;;;5.55;2.33;;;23.20;97.70;;;;;;4988554;28;20046;-56
2022/08/21 11:22:57;;;;;;;6.80;2.08;;;23.50;96.00;;;;;;4999811;28;20173;-57
2022/08/21 11:25:33;;;;;;;5.82;2.00;;;23.70;96.40;;;;;;5018023;28;20046;-57
2022/08/21 11:28:12;;;;;;;5.82;1.70;;;23.80;96.50;;;;;;4989152;28;20038;-56
2022/08/21 11:30:52;;;;;;;7.53;1.98;;;24.10;96.80;;;;;;4988330;28;20062;-56
2022/08/21 11:33:48;;;;;;;5.85;2.05;;;24.10;96.00;;;;;;4986174;28;20516;-54
2022/08/21 11:36:25;;;;;;;6.72;1.85;;;23.80;96.30;;;;;;4982824;28;20217;-56
2022/08/21 11:39:02;;;;;;;6.03;2.13;;;23.60;96.60;;;;;;4983070;28;20073;-56
2022/08/21 11:41:30;;;;;;;6.30;1.95;;;23.50;96.90;;;;;;4983883;28;20046;-55
2022/08/21 11:44:02;;;;;;;6.03;1.90;;;23.50;96.90;;;;;;4997121;28;20464;-56
2022/08/21 11:46:50;;;;;;;5.93;2.00;;;23.60;97.00;;;;;;4995908;28;20050;-57
2022/08/21 11:49:18;;;;;;;7.40;2.15;;;23.70;95.60;;;;;;4970808;28;20068;-53
2022/08/21 11:52:19;;;;;;;7.82;1.98;;;23.70;96.30;;;;;;4986998;28;20049;-56
2022/08/21 11:54:51;;;;;;;8.35;2.15;;;23.80;95.50;;;;;;4981013;28;20206;-54
2022/08/21 11:57:37;;;;;;;6.20;1.90;;;23.60;95.40;;;;;;4978676;28;20038;-54
2022/08/21 12:00:09;;;;;;;6.40;1.77;;;23.70;96.00;;;;;;4996834;28;20490;-55
2022/08/21 12:02:41;;;;;;;4.07;1.75;;;23.80;95.50;;;;;;5018095;28;20057;-53
2022/08/21 12:05:11;;;;;;;4.63;1.80;;;23.70;94.80;;;;;;5004922;28;20050;-53
2022/08/21 12:07:44;;;;;;;7.78;2.30;;;23.70;95.10;;;;;;4981140;28;20089;-54
2022/08/21 12:10:17;;;;;;;4.18;1.63;;;23.70;95.50;;;;;;4991132;28;20581;-57
2022/08/21 12:12:44;;;;;;;8.33;1.80;;;23.30;95.00;;;;;;4987319;28;20089;-53
2022/08/21 12:15:16;;;;;;;7.15;1.58;;;23.20;94.70;;;;;;4980507;28;20035;-55
2022/08/21 12:17:51;;;;;;;4.80;1.80;;;23.10;95.00;;;;;;4984616;28;20133;-55
2022/08/21 12:20:37;;;;;;;4.93;1.63;;;23.20;95.40;;;;;;4986079;28;20252;-54
2022/08/21 12:23:09;;;;;;;5.18;2.10;;;23.20;95.10;;;;;;4981731;28;20046;-54
2022/08/21 12:25:46;;;;;;;8.40;2.22;;;23.20;95.10;;;;;;4984783;28;20042;-53
2022/08/21 12:28:16;;;;;;;6.72;1.88;;;23.30;95.50;;;;;;4984090;28;20149;-54
2022/08/21 12:30:44;;;;;;;4.85;1.65;;;23.40;95.40;;;;;;4964187;28;20402;-53
2022/08/21 12:33:33;;;;;;;5.65;1.75;;;23.40;95.00;;;;;;5008258;28;20089;-53
2022/08/21 12:36:30;;;;;;;7.63;2.30;;;23.50;95.20;;;;;;4985459;28;20099;-55
2022/08/21 12:39:13;;;;;;;4.43;1.63;;;23.50;95.10;;;;;;4989116;28;20054;-52
2022/08/21 12:41:59;;;;;;;5.72;1.63;;;23.30;94.50;;;;;;4981093;28;20044;-53
2022/08/21 12:44:42;;;;;;;9.95;2.53;;;23.30;94.50;;;;;;4993864;28;20569;-55
2022/08/21 12:47:22;;;;;;;4.68;1.75;;;23.10;94.40;;;;;;4993035;28;20413;-56
2022/08/21 12:49:58;;;;;;;4.55;1.70;;;23.20;95.00;;;;;;4990419;28;20045;-56
2022/08/21 12:52:43;;;;;;;6.57;1.85;;;23.30;95.50;;;;;;4998946;28;20042;-56
2022/08/21 12:55:15;;;;;;;3.28;1.50;;;23.30;95.00;;;;;;4995683;28;20096;-53
2022/08/21 12:57:42;;;;;;;3.83;1.85;;;23.30;94.70;;;;;;4996789;28;20088;-57
2022/08/21 13:00:12;;;;;;;5.30;1.60;;;23.30;94.60;;;;;;4988858;28;20057;-56
2022/08/21 13:02:47;;;;;;;5.47;1.33;;;23.30;94.60;;;;;;4989300;28;20119;-55